<?xml version="1.0" encoding="UTF-8" standalone="no" ?>
<gpx xmlns="http://www.topografix.com/GPX/1/1" xmlns:xsi="http://www.w3.org/2001/XMLSchema-instance" xsi:schemaLocation="http://www.topografix.com/GPX/1/1 http://www.topografix.com/GPX/1/1/gpx.xsd" version="1.1" creator="VisuGPX - https://www.visugpx.com">
  <metadata>
    <name>Transcaucasie: Géorgie + Arménie</name>
  </metadata>
  <trk>
    <name><![CDATA[Tour d'Europe: étape 480]]></name>
    <extensions>
      <line xmlns="http://www.topografix.com/GPX/gpx_style/0/2">
        <color>880000</color>
        <width>4</width>
      </line>
    </extensions>
    <trkseg>
      <trkpt lat="40.74528" lon="44.87412">
        <ele>1306.823848</ele>
        <time>2021-10-21T05:41:20.885Z</time>
      </trkpt>
      <trkpt lat="40.74565" lon="44.87547">
        <ele>1308.628358</ele>
        <time>2021-10-21T05:44:23.854Z</time>
      </trkpt>
      <trkpt lat="40.74701" lon="44.87739">
        <ele>1318.220232</ele>
        <time>2021-10-21T05:46:11.867Z</time>
      </trkpt>
      <trkpt lat="40.7483" lon="44.87964">
        <ele>1316.81442</ele>
        <time>2021-10-21T05:47:34.857Z</time>
      </trkpt>
      <trkpt lat="40.7501" lon="44.88064">
        <ele>1301.411513</ele>
        <time>2021-10-21T05:48:20.887Z</time>
      </trkpt>
      <trkpt lat="40.75093" lon="44.88346">
        <ele>1288.026121</ele>
        <time>2021-10-21T05:49:15.865Z</time>
      </trkpt>
      <trkpt lat="40.75047" lon="44.88557">
        <ele>1277.271794</ele>
        <time>2021-10-21T05:49:57.885Z</time>
      </trkpt>
      <trkpt lat="40.75037" lon="44.88756">
        <ele>1280.249025</ele>
        <time>2021-10-21T05:51:01.924Z</time>
      </trkpt>
      <trkpt lat="40.75215" lon="44.88937">
        <ele>1277.674447</ele>
        <time>2021-10-21T05:51:59.868Z</time>
      </trkpt>
      <trkpt lat="40.75298" lon="44.89229">
        <ele>1267.90943</ele>
        <time>2021-10-21T05:52:45.872Z</time>
      </trkpt>
      <trkpt lat="40.75374" lon="44.89539">
        <ele>1260.199514</ele>
        <time>2021-10-21T06:08:12.886Z</time>
      </trkpt>
      <trkpt lat="40.75466" lon="44.89719">
        <ele>1248.103172</ele>
        <time>2021-10-21T06:13:42.912Z</time>
      </trkpt>
      <trkpt lat="40.75618" lon="44.89823">
        <ele>1230.327545</ele>
        <time>2021-10-21T06:15:22.881Z</time>
      </trkpt>
      <trkpt lat="40.75563" lon="44.90065">
        <ele>1218.552906</ele>
        <time>2021-10-21T06:17:00.881Z</time>
      </trkpt>
      <trkpt lat="40.75479" lon="44.90284">
        <ele>1206.654847</ele>
        <time>2021-10-21T06:18:30.856Z</time>
      </trkpt>
      <trkpt lat="40.75639" lon="44.90448">
        <ele>1196.010838</ele>
        <time>2021-10-21T06:19:54.881Z</time>
      </trkpt>
      <trkpt lat="40.75804" lon="44.90642">
        <ele>1186.138191</ele>
        <time>2021-10-21T06:20:52.886Z</time>
      </trkpt>
      <trkpt lat="40.75858" lon="44.90802">
        <ele>1182.943646</ele>
        <time>2021-10-21T06:22:00.892Z</time>
      </trkpt>
      <trkpt lat="40.75894" lon="44.91072">
        <ele>1176.368393</ele>
        <time>2021-10-21T06:23:15.876Z</time>
      </trkpt>
      <trkpt lat="40.75969" lon="44.91307">
        <ele>1162.772147</ele>
        <time>2021-10-21T06:24:32.890Z</time>
      </trkpt>
      <trkpt lat="40.76093" lon="44.91533">
        <ele>1159.221603</ele>
        <time>2021-10-21T06:26:25.875Z</time>
      </trkpt>
      <trkpt lat="40.76222" lon="44.91787">
        <ele>1147.736273</ele>
        <time>2021-10-21T06:27:27.886Z</time>
      </trkpt>
      <trkpt lat="40.76328" lon="44.91583">
        <ele>1129.272308</ele>
        <time>2021-10-21T06:28:21.866Z</time>
      </trkpt>
      <trkpt lat="40.76506" lon="44.91807">
        <ele>1127.534812</ele>
        <time>2021-10-21T06:29:19.862Z</time>
      </trkpt>
      <trkpt lat="40.76721" lon="44.91995">
        <ele>1122.837518</ele>
        <time>2021-10-21T06:29:59.876Z</time>
      </trkpt>
      <trkpt lat="40.76935" lon="44.92158">
        <ele>1116.773629</ele>
        <time>2021-10-21T06:30:50.884Z</time>
      </trkpt>
      <trkpt lat="40.77183" lon="44.92264">
        <ele>1114.920295</ele>
        <time>2021-10-21T06:31:34.900Z</time>
      </trkpt>
      <trkpt lat="40.77431" lon="44.92292">
        <ele>1107.523576</ele>
        <time>2021-10-21T06:32:14.925Z</time>
      </trkpt>
      <trkpt lat="40.7764" lon="44.92498">
        <ele>1097.661665</ele>
        <time>2021-10-21T06:33:00.877Z</time>
      </trkpt>
      <trkpt lat="40.77663" lon="44.92763">
        <ele>1094.331606</ele>
        <time>2021-10-21T06:33:44.879Z</time>
      </trkpt>
      <trkpt lat="40.77722" lon="44.93053">
        <ele>1089.435097</ele>
        <time>2021-10-21T06:40:11.903Z</time>
      </trkpt>
      <trkpt lat="40.77739" lon="44.9343">
        <ele>1077.952603</ele>
        <time>2021-10-21T06:40:51.887Z</time>
      </trkpt>
      <trkpt lat="40.77601" lon="44.93764">
        <ele>1069.782469</ele>
        <time>2021-10-21T06:41:31.880Z</time>
      </trkpt>
      <trkpt lat="40.77578" lon="44.94145">
        <ele>1063.663089</ele>
        <time>2021-10-21T06:42:13.896Z</time>
      </trkpt>
      <trkpt lat="40.77469" lon="44.94429">
        <ele>1059.451844</ele>
        <time>2021-10-21T06:42:55.885Z</time>
      </trkpt>
      <trkpt lat="40.77371" lon="44.94771">
        <ele>1051.692375</ele>
        <time>2021-10-21T06:43:35.920Z</time>
      </trkpt>
      <trkpt lat="40.77245" lon="44.95145">
        <ele>1044.149299</ele>
        <time>2021-10-21T06:44:16.908Z</time>
      </trkpt>
      <trkpt lat="40.77288" lon="44.95465">
        <ele>1042.648984</ele>
        <time>2021-10-21T06:44:56.890Z</time>
      </trkpt>
      <trkpt lat="40.77312" lon="44.95726">
        <ele>1037.858892</ele>
        <time>2021-10-21T06:45:39.877Z</time>
      </trkpt>
      <trkpt lat="40.77312" lon="44.96061">
        <ele>1024.719907</ele>
        <time>2021-10-21T06:46:21.872Z</time>
      </trkpt>
      <trkpt lat="40.77376" lon="44.96385">
        <ele>1013.861761</ele>
        <time>2021-10-21T06:47:01.883Z</time>
      </trkpt>
      <trkpt lat="40.77401" lon="44.96748">
        <ele>1008.988014</ele>
        <time>2021-10-21T06:47:44.876Z</time>
      </trkpt>
      <trkpt lat="40.77444" lon="44.97066">
        <ele>1007.612532</ele>
        <time>2021-10-21T06:48:24.889Z</time>
      </trkpt>
      <trkpt lat="40.77494" lon="44.97443">
        <ele>1004.592941</ele>
        <time>2021-10-21T06:49:06.883Z</time>
      </trkpt>
      <trkpt lat="40.77479" lon="44.97852">
        <ele>998.725802</ele>
        <time>2021-10-21T06:49:48.933Z</time>
      </trkpt>
      <trkpt lat="40.7744" lon="44.98211">
        <ele>987.802701</ele>
        <time>2021-10-21T06:50:28.885Z</time>
      </trkpt>
      <trkpt lat="40.77366" lon="44.9855">
        <ele>984.338151</ele>
        <time>2021-10-21T06:51:10.891Z</time>
      </trkpt>
      <trkpt lat="40.77228" lon="44.98897">
        <ele>975.319312</ele>
        <time>2021-10-21T06:51:52.900Z</time>
      </trkpt>
      <trkpt lat="40.77026" lon="44.99182">
        <ele>966.22432</ele>
        <time>2021-10-21T06:52:32.891Z</time>
      </trkpt>
      <trkpt lat="40.76886" lon="44.99474">
        <ele>970.02354</ele>
        <time>2021-10-21T06:53:14.890Z</time>
      </trkpt>
      <trkpt lat="40.76889" lon="44.99783">
        <ele>972.094461</ele>
        <time>2021-10-21T06:54:02.878Z</time>
      </trkpt>
      <trkpt lat="40.76941" lon="45.00201">
        <ele>957.238795</ele>
        <time>2021-10-21T06:54:44.884Z</time>
      </trkpt>
      <trkpt lat="40.76852" lon="45.00519">
        <ele>953.032165</ele>
        <time>2021-10-21T06:55:32.881Z</time>
      </trkpt>
      <trkpt lat="40.76902" lon="45.00879">
        <ele>946.203816</ele>
        <time>2021-10-21T06:56:12.892Z</time>
      </trkpt>
      <trkpt lat="40.76947" lon="45.01232">
        <ele>941.825859</ele>
        <time>2021-10-21T06:56:54.900Z</time>
      </trkpt>
      <trkpt lat="40.76869" lon="45.01484">
        <ele>940.238831</ele>
        <time>2021-10-21T06:57:37.877Z</time>
      </trkpt>
      <trkpt lat="40.76738" lon="45.01791">
        <ele>930.895798</ele>
        <time>2021-10-21T06:58:19.867Z</time>
      </trkpt>
      <trkpt lat="40.76538" lon="45.01869">
        <ele>922.021337</ele>
        <time>2021-10-21T06:59:12.890Z</time>
      </trkpt>
      <trkpt lat="40.76344" lon="45.01909">
        <ele>929.928897</ele>
        <time>2021-10-21T07:00:21.871Z</time>
      </trkpt>
      <trkpt lat="40.76175" lon="45.02088">
        <ele>935.232115</ele>
        <time>2021-10-21T07:01:30.900Z</time>
      </trkpt>
      <trkpt lat="40.75964" lon="45.02093">
        <ele>939.363628</ele>
        <time>2021-10-21T07:02:45.905Z</time>
      </trkpt>
      <trkpt lat="40.75753" lon="45.02165">
        <ele>938.584114</ele>
        <time>2021-10-21T07:03:50.893Z</time>
      </trkpt>
      <trkpt lat="40.75535" lon="45.02196">
        <ele>945.099454</ele>
        <time>2021-10-21T07:05:02.876Z</time>
      </trkpt>
      <trkpt lat="40.75334" lon="45.02226">
        <ele>948.272506</ele>
        <time>2021-10-21T07:06:15.895Z</time>
      </trkpt>
      <trkpt lat="40.75121" lon="45.02242">
        <ele>958.278218</ele>
        <time>2021-10-21T07:07:51.900Z</time>
      </trkpt>
      <trkpt lat="40.74924" lon="45.02351">
        <ele>962.098918</ele>
        <time>2021-10-21T07:09:29.898Z</time>
      </trkpt>
      <trkpt lat="40.74731" lon="45.02471">
        <ele>961.641359</ele>
        <time>2021-10-21T07:13:43.894Z</time>
      </trkpt>
      <trkpt lat="40.74523" lon="45.02567">
        <ele>967.730717</ele>
        <time>2021-10-21T07:15:06.898Z</time>
      </trkpt>
      <trkpt lat="40.74333" lon="45.02668">
        <ele>979.066385</ele>
        <time>2021-10-21T07:16:31.895Z</time>
      </trkpt>
      <trkpt lat="40.74102" lon="45.02687">
        <ele>985.228449</ele>
        <time>2021-10-21T07:17:24.913Z</time>
      </trkpt>
      <trkpt lat="40.73889" lon="45.02762">
        <ele>974.169468</ele>
        <time>2021-10-21T07:18:40.900Z</time>
      </trkpt>
      <trkpt lat="40.73804" lon="45.0297">
        <ele>979.022177</ele>
        <time>2021-10-21T07:19:45.873Z</time>
      </trkpt>
      <trkpt lat="40.73824" lon="45.0325">
        <ele>982.926019</ele>
        <time>2021-10-21T07:20:57.921Z</time>
      </trkpt>
      <trkpt lat="40.73772" lon="45.03494">
        <ele>985.60785</ele>
        <time>2021-10-21T07:22:40.904Z</time>
      </trkpt>
      <trkpt lat="40.73613" lon="45.03683">
        <ele>991.793505</ele>
        <time>2021-10-21T07:23:35.930Z</time>
      </trkpt>
      <trkpt lat="40.73446" lon="45.03872">
        <ele>1003.694352</ele>
        <time>2021-10-21T07:24:52.893Z</time>
      </trkpt>
      <trkpt lat="40.73286" lon="45.04034">
        <ele>1011.007932</ele>
        <time>2021-10-21T07:26:13.899Z</time>
      </trkpt>
      <trkpt lat="40.73201" lon="45.04303">
        <ele>1015.65522</ele>
        <time>2021-10-21T07:27:28.889Z</time>
      </trkpt>
      <trkpt lat="40.73038" lon="45.04468">
        <ele>1021.657279</ele>
        <time>2021-10-21T07:29:03.926Z</time>
      </trkpt>
      <trkpt lat="40.72916" lon="45.04691">
        <ele>1030.158328</ele>
        <time>2021-10-21T07:30:12.904Z</time>
      </trkpt>
      <trkpt lat="40.72756" lon="45.04885">
        <ele>1027.714975</ele>
        <time>2021-10-21T07:31:26.932Z</time>
      </trkpt>
      <trkpt lat="40.72636" lon="45.05103">
        <ele>1029.802152</ele>
        <time>2021-10-21T07:32:50.893Z</time>
      </trkpt>
      <trkpt lat="40.72447" lon="45.05221">
        <ele>1032.317495</ele>
        <time>2021-10-21T07:34:06.893Z</time>
      </trkpt>
      <trkpt lat="40.72299" lon="45.05444">
        <ele>1037.859493</ele>
        <time>2021-10-21T07:35:23.894Z</time>
      </trkpt>
      <trkpt lat="40.72197" lon="45.05675">
        <ele>1039.696711</ele>
        <time>2021-10-21T07:36:39.879Z</time>
      </trkpt>
      <trkpt lat="40.72143" lon="45.05957">
        <ele>1041.447687</ele>
        <time>2021-10-21T07:37:54.903Z</time>
      </trkpt>
      <trkpt lat="40.72174" lon="45.06216">
        <ele>1052.186316</ele>
        <time>2021-10-21T07:39:10.887Z</time>
      </trkpt>
      <trkpt lat="40.72316" lon="45.06434">
        <ele>1058.240151</ele>
        <time>2021-10-21T07:40:37.909Z</time>
      </trkpt>
      <trkpt lat="40.72438" lon="45.06652">
        <ele>1062.705127</ele>
        <time>2021-10-21T07:42:30.904Z</time>
      </trkpt>
      <trkpt lat="40.72511" lon="45.06896">
        <ele>1070.431445</ele>
        <time>2021-10-21T07:43:56.881Z</time>
      </trkpt>
      <trkpt lat="40.72478" lon="45.07169">
        <ele>1075.974998</ele>
        <time>2021-10-21T07:45:36.900Z</time>
      </trkpt>
      <trkpt lat="40.7253" lon="45.07443">
        <ele>1076.356996</ele>
        <time>2021-10-21T07:46:36.892Z</time>
      </trkpt>
      <trkpt lat="40.72433" lon="45.07665">
        <ele>1085.330079</ele>
        <time>2021-10-21T07:47:55.898Z</time>
      </trkpt>
      <trkpt lat="40.72342" lon="45.07913">
        <ele>1096.705269</ele>
        <time>2021-10-21T07:49:32.879Z</time>
      </trkpt>
      <trkpt lat="40.72274" lon="45.08156">
        <ele>1100.782918</ele>
        <time>2021-10-21T07:51:15.920Z</time>
      </trkpt>
      <trkpt lat="40.72243" lon="45.08448">
        <ele>1102.908238</ele>
        <time>2021-10-21T07:52:30.890Z</time>
      </trkpt>
      <trkpt lat="40.72196" lon="45.0873">
        <ele>1103.632233</ele>
        <time>2021-10-21T07:53:39.907Z</time>
      </trkpt>
      <trkpt lat="40.7213" lon="45.08977">
        <ele>1113.55805</ele>
        <time>2021-10-21T07:55:15.911Z</time>
      </trkpt>
      <trkpt lat="40.72035" lon="45.09226">
        <ele>1117.955466</ele>
        <time>2021-10-21T07:56:38.935Z</time>
      </trkpt>
      <trkpt lat="40.71939" lon="45.09427">
        <ele>1128.107924</ele>
        <time>2021-10-21T07:58:04.885Z</time>
      </trkpt>
      <trkpt lat="40.71725" lon="45.09416">
        <ele>1136.910076</ele>
        <time>2021-10-21T07:59:39.904Z</time>
      </trkpt>
      <trkpt lat="40.71539" lon="45.09541">
        <ele>1143.002385</ele>
        <time>2021-10-21T08:01:28.913Z</time>
      </trkpt>
      <trkpt lat="40.71418" lon="45.09732">
        <ele>1155.647695</ele>
        <time>2021-10-21T08:03:41.897Z</time>
      </trkpt>
      <trkpt lat="40.71246" lon="45.09908">
        <ele>1158.042057</ele>
        <time>2021-10-21T08:04:53.936Z</time>
      </trkpt>
      <trkpt lat="40.7111" lon="45.1013">
        <ele>1164.924606</ele>
        <time>2021-10-21T08:06:11.906Z</time>
      </trkpt>
      <trkpt lat="40.70925" lon="45.1022">
        <ele>1162.787605</ele>
        <time>2021-10-21T08:07:30.939Z</time>
      </trkpt>
      <trkpt lat="40.70729" lon="45.102">
        <ele>1163.86495</ele>
        <time>2021-10-21T08:08:43.933Z</time>
      </trkpt>
      <trkpt lat="40.70547" lon="45.10305">
        <ele>1170.113058</ele>
        <time>2021-10-21T08:10:15.900Z</time>
      </trkpt>
      <trkpt lat="40.7033" lon="45.10365">
        <ele>1172.440266</ele>
        <time>2021-10-21T08:11:32.935Z</time>
      </trkpt>
      <trkpt lat="40.70149" lon="45.10501">
        <ele>1176.577643</ele>
        <time>2021-10-21T08:12:53.901Z</time>
      </trkpt>
      <trkpt lat="40.70026" lon="45.10713">
        <ele>1186.505846</ele>
        <time>2021-10-21T08:14:31.894Z</time>
      </trkpt>
      <trkpt lat="40.69861" lon="45.1089">
        <ele>1187.833484</ele>
        <time>2021-10-21T08:15:40.890Z</time>
      </trkpt>
      <trkpt lat="40.69704" lon="45.11057">
        <ele>1193.481536</ele>
        <time>2021-10-21T08:17:02.899Z</time>
      </trkpt>
      <trkpt lat="40.69578" lon="45.11275">
        <ele>1197.653778</ele>
        <time>2021-10-21T08:18:42.897Z</time>
      </trkpt>
      <trkpt lat="40.694" lon="45.1144">
        <ele>1199.881114</ele>
        <time>2021-10-21T08:19:56.912Z</time>
      </trkpt>
      <trkpt lat="40.69235" lon="45.11608">
        <ele>1205.245005</ele>
        <time>2021-10-21T08:21:14.909Z</time>
      </trkpt>
      <trkpt lat="40.69169" lon="45.11868">
        <ele>1211.292508</ele>
        <time>2021-10-21T08:22:44.908Z</time>
      </trkpt>
      <trkpt lat="40.69049" lon="45.12091">
        <ele>1223.457898</ele>
        <time>2021-10-21T08:24:29.911Z</time>
      </trkpt>
      <trkpt lat="40.68912" lon="45.12294">
        <ele>1230.9531</ele>
        <time>2021-10-21T08:36:38.908Z</time>
      </trkpt>
      <trkpt lat="40.68905" lon="45.12562">
        <ele>1230.419071</ele>
        <time>2021-10-21T08:38:32.947Z</time>
      </trkpt>
      <trkpt lat="40.68825" lon="45.12801">
        <ele>1239.795144</ele>
        <time>2021-10-21T08:40:11.922Z</time>
      </trkpt>
      <trkpt lat="40.68713" lon="45.13021">
        <ele>1246.740283</ele>
        <time>2021-10-21T08:41:48.909Z</time>
      </trkpt>
      <trkpt lat="40.68726" lon="45.13297">
        <ele>1254.395064</ele>
        <time>2021-10-21T08:42:54.902Z</time>
      </trkpt>
      <trkpt lat="40.6878" lon="45.13551">
        <ele>1257.279858</ele>
        <time>2021-10-21T08:44:07.937Z</time>
      </trkpt>
      <trkpt lat="40.68835" lon="45.13833">
        <ele>1263.39587</ele>
        <time>2021-10-21T08:45:37.905Z</time>
      </trkpt>
      <trkpt lat="40.6883" lon="45.14086">
        <ele>1272.966482</ele>
        <time>2021-10-21T08:47:42.924Z</time>
      </trkpt>
      <trkpt lat="40.68817" lon="45.14384">
        <ele>1278.851294</ele>
        <time>2021-10-21T08:49:11.909Z</time>
      </trkpt>
      <trkpt lat="40.68803" lon="45.14662">
        <ele>1285.092696</ele>
        <time>2021-10-21T08:50:50.903Z</time>
      </trkpt>
      <trkpt lat="40.68748" lon="45.14924">
        <ele>1282.744419</ele>
        <time>2021-10-21T08:52:05.906Z</time>
      </trkpt>
      <trkpt lat="40.68671" lon="45.15197">
        <ele>1286.54594</ele>
        <time>2021-10-21T08:53:11.904Z</time>
      </trkpt>
      <trkpt lat="40.68587" lon="45.15458">
        <ele>1302.159055</ele>
        <time>2021-10-21T08:55:00.924Z</time>
      </trkpt>
      <trkpt lat="40.68475" lon="45.15655">
        <ele>1310.92159</ele>
        <time>2021-10-21T08:56:48.911Z</time>
      </trkpt>
      <trkpt lat="40.68478" lon="45.15939">
        <ele>1315.927787</ele>
        <time>2021-10-21T08:57:57.959Z</time>
      </trkpt>
      <trkpt lat="40.68487" lon="45.16194">
        <ele>1329.61906</ele>
        <time>2021-10-21T08:59:49.939Z</time>
      </trkpt>
      <trkpt lat="40.68376" lon="45.16425">
        <ele>1337.438216</ele>
        <time>2021-10-21T09:01:50.900Z</time>
      </trkpt>
      <trkpt lat="40.68253" lon="45.16635">
        <ele>1348.139001</ele>
        <time>2021-10-21T09:04:17.902Z</time>
      </trkpt>
      <trkpt lat="40.68132" lon="45.1683">
        <ele>1357.422491</ele>
        <time>2021-10-21T09:06:10.906Z</time>
      </trkpt>
      <trkpt lat="40.6804" lon="45.17076">
        <ele>1372.92045</ele>
        <time>2021-10-21T09:08:18.929Z</time>
      </trkpt>
      <trkpt lat="40.67976" lon="45.17323">
        <ele>1384.09253</ele>
        <time>2021-10-21T09:10:28.928Z</time>
      </trkpt>
      <trkpt lat="40.68012" lon="45.17601">
        <ele>1387.663623</ele>
        <time>2021-10-21T09:11:46.915Z</time>
      </trkpt>
      <trkpt lat="40.67985" lon="45.17875">
        <ele>1390.577063</ele>
        <time>2021-10-21T09:12:58.905Z</time>
      </trkpt>
      <trkpt lat="40.67888" lon="45.18115">
        <ele>1388.363882</ele>
        <time>2021-10-21T09:14:08.897Z</time>
      </trkpt>
      <trkpt lat="40.67813" lon="45.18377">
        <ele>1390.087067</ele>
        <time>2021-10-21T09:15:36.927Z</time>
      </trkpt>
      <trkpt lat="40.67782" lon="45.18651">
        <ele>1393.433225</ele>
        <time>2021-10-21T09:16:47.901Z</time>
      </trkpt>
      <trkpt lat="40.67751" lon="45.18935">
        <ele>1397.287971</ele>
        <time>2021-10-21T09:18:04.910Z</time>
      </trkpt>
      <trkpt lat="40.67714" lon="45.19205">
        <ele>1407.744923</ele>
        <time>2021-10-21T09:19:55.906Z</time>
      </trkpt>
      <trkpt lat="40.67721" lon="45.19479">
        <ele>1413.417719</ele>
        <time>2021-10-21T09:21:13.930Z</time>
      </trkpt>
      <trkpt lat="40.67676" lon="45.19746">
        <ele>1413.861057</ele>
        <time>2021-10-21T09:22:49.922Z</time>
      </trkpt>
      <trkpt lat="40.67663" lon="45.20028">
        <ele>1425.463036</ele>
        <time>2021-10-21T09:24:27.918Z</time>
      </trkpt>
      <trkpt lat="40.67588" lon="45.20252">
        <ele>1441.101474</ele>
        <time>2021-10-21T09:26:56.935Z</time>
      </trkpt>
      <trkpt lat="40.67474" lon="45.20487">
        <ele>1448.786931</ele>
        <time>2021-10-21T09:28:21.955Z</time>
      </trkpt>
      <trkpt lat="40.67466" lon="45.20759">
        <ele>1454.384485</ele>
        <time>2021-10-21T09:29:41.915Z</time>
      </trkpt>
      <trkpt lat="40.67387" lon="45.21004">
        <ele>1464.509604</ele>
        <time>2021-10-21T09:31:50.927Z</time>
      </trkpt>
      <trkpt lat="40.67347" lon="45.2126">
        <ele>1473.797415</ele>
        <time>2021-10-21T09:33:38.927Z</time>
      </trkpt>
      <trkpt lat="40.67296" lon="45.21513">
        <ele>1481.594594</ele>
        <time>2021-10-21T09:35:12.912Z</time>
      </trkpt>
      <trkpt lat="40.67278" lon="45.21791">
        <ele>1491.725447</ele>
        <time>2021-10-21T09:36:50.929Z</time>
      </trkpt>
      <trkpt lat="40.673" lon="45.22047">
        <ele>1500.985742</ele>
        <time>2021-10-21T09:38:45.920Z</time>
      </trkpt>
      <trkpt lat="40.6728" lon="45.22322">
        <ele>1502.888584</ele>
        <time>2021-10-21T09:40:04.920Z</time>
      </trkpt>
      <trkpt lat="40.67165" lon="45.22547">
        <ele>1509.623557</ele>
        <time>2021-10-21T09:41:52.908Z</time>
      </trkpt>
      <trkpt lat="40.67097" lon="45.22789">
        <ele>1517.24981</ele>
        <time>2021-10-21T09:43:32.958Z</time>
      </trkpt>
      <trkpt lat="40.66992" lon="45.23026">
        <ele>1532.733785</ele>
        <time>2021-10-21T09:45:10.939Z</time>
      </trkpt>
      <trkpt lat="40.6703" lon="45.23292">
        <ele>1548.64524</ele>
        <time>2021-10-21T09:47:22.937Z</time>
      </trkpt>
      <trkpt lat="40.67052" lon="45.23532">
        <ele>1560.937656</ele>
        <time>2021-10-21T09:49:27.912Z</time>
      </trkpt>
      <trkpt lat="40.67126" lon="45.23771">
        <ele>1577.142684</ele>
        <time>2021-10-21T09:51:23.955Z</time>
      </trkpt>
      <trkpt lat="40.6728" lon="45.23937">
        <ele>1577.68983</ele>
        <time>2021-10-21T09:53:22.925Z</time>
      </trkpt>
      <trkpt lat="40.67357" lon="45.24205">
        <ele>1594.454961</ele>
        <time>2021-10-21T10:04:43.917Z</time>
      </trkpt>
      <trkpt lat="40.67397" lon="45.24468">
        <ele>1603.458548</ele>
        <time>2021-10-21T10:06:40.922Z</time>
      </trkpt>
      <trkpt lat="40.67401" lon="45.24726">
        <ele>1618.089929</ele>
        <time>2021-10-21T10:09:06.914Z</time>
      </trkpt>
      <trkpt lat="40.67349" lon="45.24982">
        <ele>1628.325214</ele>
        <time>2021-10-21T10:11:22.928Z</time>
      </trkpt>
      <trkpt lat="40.67243" lon="45.25197">
        <ele>1639.047546</ele>
        <time>2021-10-21T10:13:19.914Z</time>
      </trkpt>
      <trkpt lat="40.67055" lon="45.25224">
        <ele>1651.531317</ele>
        <time>2021-10-21T10:15:51.920Z</time>
      </trkpt>
      <trkpt lat="40.66883" lon="45.25367">
        <ele>1658.908951</ele>
        <time>2021-10-21T10:17:21.928Z</time>
      </trkpt>
      <trkpt lat="40.6679" lon="45.25597">
        <ele>1666.831852</ele>
        <time>2021-10-21T10:19:18.913Z</time>
      </trkpt>
      <trkpt lat="40.66587" lon="45.25619">
        <ele>1678.06968</ele>
        <time>2021-10-21T10:21:15.932Z</time>
      </trkpt>
      <trkpt lat="40.66407" lon="45.25754">
        <ele>1686.975196</ele>
        <time>2021-10-21T10:23:01.923Z</time>
      </trkpt>
      <trkpt lat="40.66218" lon="45.25853">
        <ele>1688.064107</ele>
        <time>2021-10-21T10:24:18.933Z</time>
      </trkpt>
      <trkpt lat="40.66076" lon="45.26094">
        <ele>1687.559673</ele>
        <time>2021-10-21T10:25:40.000Z</time>
      </trkpt>
      <trkpt lat="40.65961" lon="45.26322">
        <ele>1697.432315</ele>
        <time>2021-10-21T10:27:11.894Z</time>
      </trkpt>
      <trkpt lat="40.65957" lon="45.26567">
        <ele>1707.420121</ele>
        <time>2021-10-21T10:28:53.926Z</time>
      </trkpt>
      <trkpt lat="40.6591" lon="45.26851">
        <ele>1705.264119</ele>
        <time>2021-10-21T10:30:23.916Z</time>
      </trkpt>
      <trkpt lat="40.6585" lon="45.27101">
        <ele>1711.237562</ele>
        <time>2021-10-21T10:31:41.954Z</time>
      </trkpt>
      <trkpt lat="40.65753" lon="45.27353">
        <ele>1717.56778</ele>
        <time>2021-10-21T10:33:21.954Z</time>
      </trkpt>
      <trkpt lat="40.65664" lon="45.27582">
        <ele>1726.099984</ele>
        <time>2021-10-21T10:35:15.908Z</time>
      </trkpt>
      <trkpt lat="40.65561" lon="45.27842">
        <ele>1722.652034</ele>
        <time>2021-10-21T10:36:23.951Z</time>
      </trkpt>
      <trkpt lat="40.65492" lon="45.28116">
        <ele>1723.852573</ele>
        <time>2021-10-21T10:37:27.935Z</time>
      </trkpt>
      <trkpt lat="40.65508" lon="45.2841">
        <ele>1725.747726</ele>
        <time>2021-10-21T10:38:27.920Z</time>
      </trkpt>
      <trkpt lat="40.65478" lon="45.2869">
        <ele>1724.420469</ele>
        <time>2021-10-21T10:39:33.911Z</time>
      </trkpt>
      <trkpt lat="40.65369" lon="45.28924">
        <ele>1734.36249</ele>
        <time>2021-10-21T10:41:27.914Z</time>
      </trkpt>
      <trkpt lat="40.65277" lon="45.29163">
        <ele>1741.064476</ele>
        <time>2021-10-21T10:42:58.967Z</time>
      </trkpt>
      <trkpt lat="40.6517" lon="45.29397">
        <ele>1740.842179</ele>
        <time>2021-10-21T10:44:32.921Z</time>
      </trkpt>
      <trkpt lat="40.65053" lon="45.29617">
        <ele>1746.894912</ele>
        <time>2021-10-21T10:46:22.924Z</time>
      </trkpt>
      <trkpt lat="40.64945" lon="45.29859">
        <ele>1747.289181</ele>
        <time>2021-10-21T10:47:36.960Z</time>
      </trkpt>
      <trkpt lat="40.64865" lon="45.30208">
        <ele>1741.680004</ele>
        <time>2021-10-21T10:48:17.934Z</time>
      </trkpt>
      <trkpt lat="40.6481" lon="45.30455">
        <ele>1744.379556</ele>
        <time>2021-10-21T10:49:18.922Z</time>
      </trkpt>
      <trkpt lat="40.64744" lon="45.30746">
        <ele>1748.480288</ele>
        <time>2021-10-21T10:50:38.922Z</time>
      </trkpt>
      <trkpt lat="40.64687" lon="45.31013">
        <ele>1753.486879</ele>
        <time>2021-10-21T10:51:54.907Z</time>
      </trkpt>
      <trkpt lat="40.64617" lon="45.31296">
        <ele>1756.442583</ele>
        <time>2021-10-21T10:53:18.927Z</time>
      </trkpt>
      <trkpt lat="40.64514" lon="45.31566">
        <ele>1754.494832</ele>
        <time>2021-10-21T10:54:41.909Z</time>
      </trkpt>
      <trkpt lat="40.64394" lon="45.31793">
        <ele>1758.067915</ele>
        <time>2021-10-21T10:56:01.920Z</time>
      </trkpt>
      <trkpt lat="40.64266" lon="45.32036">
        <ele>1761.377506</ele>
        <time>2021-10-21T10:57:24.905Z</time>
      </trkpt>
      <trkpt lat="40.64132" lon="45.32266">
        <ele>1764.652098</ele>
        <time>2021-10-21T10:58:48.915Z</time>
      </trkpt>
      <trkpt lat="40.63973" lon="45.32419">
        <ele>1770.698143</ele>
        <time>2021-10-21T11:00:22.927Z</time>
      </trkpt>
      <trkpt lat="40.63795" lon="45.32597">
        <ele>1769.338768</ele>
        <time>2021-10-21T11:01:35.944Z</time>
      </trkpt>
      <trkpt lat="40.63643" lon="45.32783">
        <ele>1770.234243</ele>
        <time>2021-10-21T11:02:38.936Z</time>
      </trkpt>
      <trkpt lat="40.63485" lon="45.32975">
        <ele>1778.566393</ele>
        <time>2021-10-21T11:03:58.925Z</time>
      </trkpt>
      <trkpt lat="40.63319" lon="45.33133">
        <ele>1786.016446</ele>
        <time>2021-10-21T11:05:56.933Z</time>
      </trkpt>
      <trkpt lat="40.63138" lon="45.33275">
        <ele>1789.201034</ele>
        <time>2021-10-21T11:07:00.914Z</time>
      </trkpt>
      <trkpt lat="40.62944" lon="45.3342">
        <ele>1788.570264</ele>
        <time>2021-10-21T11:09:58.915Z</time>
      </trkpt>
      <trkpt lat="40.62758" lon="45.33524">
        <ele>1797.428974</ele>
        <time>2021-10-21T11:11:19.933Z</time>
      </trkpt>
      <trkpt lat="40.62574" lon="45.33659">
        <ele>1808.065193</ele>
        <time>2021-10-21T11:12:57.914Z</time>
      </trkpt>
      <trkpt lat="40.62401" lon="45.3382">
        <ele>1811.568043</ele>
        <time>2021-10-21T11:14:39.935Z</time>
      </trkpt>
      <trkpt lat="40.62218" lon="45.34009">
        <ele>1807.793003</ele>
        <time>2021-10-21T11:15:23.927Z</time>
      </trkpt>
      <trkpt lat="40.62002" lon="45.34103">
        <ele>1807.144827</ele>
        <time>2021-10-21T11:16:30.917Z</time>
      </trkpt>
      <trkpt lat="40.61781" lon="45.3419">
        <ele>1804.108578</ele>
        <time>2021-10-21T11:17:13.936Z</time>
      </trkpt>
      <trkpt lat="40.61578" lon="45.34372">
        <ele>1807.668298</ele>
        <time>2021-10-21T11:18:15.929Z</time>
      </trkpt>
      <trkpt lat="40.61423" lon="45.3459">
        <ele>1811.730548</ele>
        <time>2021-10-21T11:19:32.907Z</time>
      </trkpt>
      <trkpt lat="40.61277" lon="45.34794">
        <ele>1813.571677</ele>
        <time>2021-10-21T11:20:49.916Z</time>
      </trkpt>
      <trkpt lat="40.61136" lon="45.34989">
        <ele>1815.804685</ele>
        <time>2021-10-21T11:21:55.931Z</time>
      </trkpt>
      <trkpt lat="40.60971" lon="45.35151">
        <ele>1809.776729</ele>
        <time>2021-10-21T11:23:01.924Z</time>
      </trkpt>
      <trkpt lat="40.60772" lon="45.35247">
        <ele>1810.155302</ele>
        <time>2021-10-21T11:24:11.925Z</time>
      </trkpt>
      <trkpt lat="40.60576" lon="45.35317">
        <ele>1818.930589</ele>
        <time>2021-10-21T11:25:17.912Z</time>
      </trkpt>
      <trkpt lat="40.60379" lon="45.35361">
        <ele>1824.850639</ele>
        <time>2021-10-21T11:26:39.986Z</time>
      </trkpt>
      <trkpt lat="40.60233" lon="45.35391">
        <ele>1835.624926</ele>
        <time>2021-10-21T11:28:07.932Z</time>
      </trkpt>
      <trkpt lat="40.60163" lon="45.35175">
        <ele>1861.784211</ele>
        <time>2021-10-21T11:47:05.914Z</time>
      </trkpt>
      <trkpt lat="40.60002" lon="45.35211">
        <ele>1870.845293</ele>
        <time>2021-10-21T11:48:54.923Z</time>
      </trkpt>
      <trkpt lat="40.5978" lon="45.35287">
        <ele>1868.691665</ele>
        <time>2021-10-21T11:50:43.936Z</time>
      </trkpt>
      <trkpt lat="40.59578" lon="45.35251">
        <ele>1873.323564</ele>
        <time>2021-10-21T11:52:08.964Z</time>
      </trkpt>
      <trkpt lat="40.59378" lon="45.35177">
        <ele>1883.659146</ele>
        <time>2021-10-21T11:55:43.935Z</time>
      </trkpt>
      <trkpt lat="40.59589" lon="45.35261">
        <ele>1889.862691</ele>
        <time>2021-10-21T12:01:38.977Z</time>
      </trkpt>
      <trkpt lat="40.59675" lon="45.35336">
        <ele>1889.862691</ele>
        <time>2021-10-21T12:07:59.273Z</time>
      </trkpt>
    </trkseg>
  </trk>
</gpx>